Time;durP1;ratioP1;P1;durP2;ratioP2;P2;SDS_P1;SDS_P2;PMS_P1;PMS_P2;Temp;Humidity;BMP_temperature;BMP_pressure;BME280_temperature;BME280_humidity;BME280_pressure;Samples;Min_cycle;Max_cycle;Signal;HPM_P1;HPM_P2
2023/06/07 00:00:59;;;;;;;6.78;4.63;;;11.80;99.90;;;;;;6190125;23;20056;-64
2023/06/07 00:03:26;;;;;;;9.18;5.18;;;11.80;99.90;;;;;;6189187;23;20056;-63
2023/06/07 00:05:52;;;;;;;9.25;4.97;;;11.80;99.90;;;;;;6189102;23;20079;-63
2023/06/07 00:08:18;;;;;;;14.10;5.90;;;11.80;99.90;;;;;;6190015;23;20075;-63
2023/06/07 00:10:44;;;;;;;7.50;4.95;;;11.80;99.90;;;;;;6188417;23;20055;-63
2023/06/07 00:13:10;;;;;;;8.80;6.00;;;11.80;99.90;;;;;;6191342;23;20017;-64
2023/06/07 00:15:36;;;;;;;10.68;4.95;;;11.80;99.90;;;;;;6188998;23;20025;-64
2023/06/07 00:18:02;;;;;;;8.63;4.38;;;11.80;99.90;;;;;;6191151;23;20021;-63
2023/06/07 00:20:27;;;;;;;11.07;4.70;;;11.80;99.90;;;;;;6188743;23;20028;-66
2023/06/07 00:22:58;;;;;;;8.93;4.60;;;11.80;99.90;;;;;;6189160;23;20081;-64
2023/06/07 00:25:24;;;;;;;11.00;5.18;;;11.80;99.90;;;;;;6189612;23;20012;-63
2023/06/07 00:27:50;;;;;;;14.52;5.55;;;11.70;99.90;;;;;;6191604;23;20035;-64
2023/06/07 00:30:19;;;;;;;9.35;4.85;;;11.70;99.90;;;;;;6197216;23;20013;-64
2023/06/07 00:32:47;;;;;;;16.60;5.78;;;11.60;99.90;;;;;;6195729;23;20477;-64
2023/06/07 00:35:13;;;;;;;13.05;5.40;;;11.70;99.90;;;;;;6195994;23;20021;-64
2023/06/07 00:37:40;;;;;;;11.27;4.75;;;11.80;99.90;;;;;;6190171;23;20021;-64
2023/06/07 00:40:07;;;;;;;10.18;5.70;;;11.80;99.90;;;;;;6191095;23;20112;-64
2023/06/07 00:42:33;;;;;;;14.68;5.68;;;11.80;99.90;;;;;;6195624;23;20047;-65
2023/06/07 00:44:58;;;;;;;10.38;5.10;;;11.70;99.90;;;;;;6201879;23;20017;-64
2023/06/07 00:47:25;;;;;;;19.15;6.28;;;11.70;99.90;;;;;;6199592;23;20014;-65
2023/06/07 00:49:52;;;;;;;10.82;6.00;;;11.80;99.90;;;;;;6195725;23;20104;-64
2023/06/07 00:52:18;;;;;;;10.68;5.65;;;11.80;99.90;;;;;;6192491;23;20016;-64
2023/06/07 00:54:44;;;;;;;8.82;5.15;;;11.60;99.90;;;;;;6189069;23;20048;-64
2023/06/07 00:57:10;;;;;;;10.48;5.05;;;11.60;99.90;;;;;;6188675;23;20017;-64
2023/06/07 00:59:37;;;;;;;9.25;5.63;;;11.70;99.90;;;;;;6189549;23;20013;-64
2023/06/07 01:02:04;;;;;;;10.20;5.35;;;11.70;99.90;;;;;;6161087;23;20130;-64
2023/06/07 01:04:30;;;;;;;7.68;4.90;;;11.70;99.90;;;;;;6190082;23;20017;-64
2023/06/07 01:06:57;;;;;;;9.95;5.50;;;11.70;99.90;;;;;;6187286;23;20052;-64
2023/06/07 01:09:24;;;;;;;12.38;5.32;;;11.70;99.90;;;;;;6190710;23;20013;-64
2023/06/07 01:11:53;;;;;;;10.60;4.95;;;11.70;99.90;;;;;;6188175;23;20048;-64
2023/06/07 01:14:19;;;;;;;10.27;5.68;;;11.80;99.90;;;;;;6189128;23;20020;-63
2023/06/07 01:16:50;;;;;;;16.08;6.20;;;11.70;99.90;;;;;;6193164;23;20021;-63
2023/06/07 01:19:25;;;;;;;14.13;5.40;;;11.80;99.90;;;;;;6194301;23;20092;-64
2023/06/07 01:22:00;;;;;;;13.57;6.13;;;11.80;99.90;;;;;;6195759;23;20019;-64
2023/06/07 01:24:29;;;;;;;11.93;6.25;;;11.60;99.90;;;;;;6191062;23;20592;-64
2023/06/07 01:26:57;;;;;;;14.00;6.55;;;11.60;99.90;;;;;;6188993;23;20020;-63
2023/06/07 01:29:25;;;;;;;14.07;6.03;;;11.60;99.90;;;;;;6162163;23;20059;-63
2023/06/07 01:31:53;;;;;;;12.35;5.43;;;11.50;99.90;;;;;;6187683;23;20013;-64
2023/06/07 01:34:20;;;;;;;14.27;5.95;;;11.50;99.90;;;;;;6189196;23;20028;-64
2023/06/07 01:36:47;;;;;;;12.27;6.57;;;11.50;99.90;;;;;;6186877;23;20035;-64
2023/06/07 01:39:15;;;;;;;11.77;6.30;;;11.40;99.90;;;;;;6162630;23;20020;-64
2023/06/07 01:41:42;;;;;;;8.52;6.25;;;11.30;99.90;;;;;;6187044;23;20179;-63
2023/06/07 01:44:08;;;;;;;9.55;5.78;;;11.40;99.90;;;;;;6188807;23;20025;-64
2023/06/07 01:46:34;;;;;;;12.20;6.30;;;11.50;99.90;;;;;;6188298;23;20024;-63
2023/06/07 01:49:01;;;;;;;14.70;6.57;;;11.40;99.90;;;;;;6186840;23;20029;-64
2023/06/07 01:51:27;;;;;;;10.90;5.75;;;11.40;99.90;;;;;;6188961;23;20017;-64
2023/06/07 01:53:52;;;;;;;15.98;7.45;;;11.40;99.90;;;;;;6186718;23;20044;-64
2023/06/07 01:56:32;;;;;;;11.70;6.20;;;11.40;99.90;;;;;;6162534;23;20071;-64
2023/06/07 01:59:13;;;;;;;11.13;6.93;;;11.50;99.90;;;;;;6187416;23;20406;-63
2023/06/07 02:01:53;;;;;;;13.05;6.22;;;11.40;99.90;;;;;;6161071;23;20367;-63
2023/06/07 02:04:20;;;;;;;14.10;6.32;;;11.40;99.90;;;;;;6188665;23;20060;-64
2023/06/07 02:06:50;;;;;;;11.05;5.70;;;11.40;99.90;;;;;;6186504;23;20020;-63
2023/06/07 02:09:22;;;;;;;11.00;6.88;;;11.40;99.90;;;;;;6188767;23;20028;-64
2023/06/07 02:11:49;;;;;;;9.50;6.00;;;11.30;99.90;;;;;;6187492;23;20024;-64
2023/06/07 02:14:17;;;;;;;11.00;6.00;;;11.20;99.90;;;;;;6187754;23;20138;-63
2023/06/07 02:16:43;;;;;;;11.60;6.75;;;11.20;99.90;;;;;;6188534;23;20379;-63
2023/06/07 02:19:09;;;;;;;14.02;6.93;;;11.20;99.90;;;;;;6186342;23;20049;-63
2023/06/07 02:21:36;;;;;;;12.45;6.78;;;11.00;99.90;;;;;;6188976;23;20334;-63
2023/06/07 02:24:06;;;;;;;9.38;6.32;;;11.00;99.90;;;;;;6186168;23;20025;-64
2023/06/07 02:26:33;;;;;;;14.55;7.45;;;11.00;99.90;;;;;;6188641;23;20021;-64
2023/06/07 02:28:59;;;;;;;14.25;7.07;;;11.00;99.90;;;;;;6187319;23;20052;-63
2023/06/07 02:31:25;;;;;;;12.38;7.65;;;11.10;99.90;;;;;;6187882;23;20049;-64
2023/06/07 02:33:51;;;;;;;13.35;6.93;;;11.10;99.90;;;;;;6188413;23;20426;-64
2023/06/07 02:36:25;;;;;;;11.75;7.03;;;11.10;99.90;;;;;;6186570;23;20028;-63
2023/06/07 02:38:51;;;;;;;11.32;6.97;;;11.10;99.90;;;;;;6188863;23;20024;-63
2023/06/07 02:41:17;;;;;;;12.43;6.97;;;11.10;99.90;;;;;;6186570;23;20071;-64
2023/06/07 02:43:44;;;;;;;15.23;7.10;;;11.00;99.90;;;;;;6188107;23;20013;-62
2023/06/07 02:46:11;;;;;;;22.15;9.10;;;10.90;99.90;;;;;;6187260;23;20041;-63
2023/06/07 02:48:38;;;;;;;12.00;6.80;;;11.00;99.90;;;;;;6187513;23;20028;-63
2023/06/07 02:51:03;;;;;;;12.30;6.38;;;10.90;99.90;;;;;;6188657;23;20060;-64
2023/06/07 02:53:30;;;;;;;14.63;6.57;;;10.80;99.90;;;;;;6186689;23;20013;-64
2023/06/07 02:55:56;;;;;;;10.80;6.53;;;10.70;99.90;;;;;;6190617;23;20060;-63
2023/06/07 02:58:22;;;;;;;12.88;7.15;;;10.70;99.90;;;;;;6188387;23;20056;-63
2023/06/07 03:00:49;;;;;;;14.05;6.45;;;10.60;99.90;;;;;;6190259;23;20028;-63
2023/06/07 03:03:16;;;;;;;13.30;7.38;;;10.60;99.90;;;;;;6189181;23;20013;-64
2023/06/07 03:05:46;;;;;;;10.30;6.30;;;10.70;99.90;;;;;;6189560;23;20021;-65
2023/06/07 03:08:12;;;;;;;16.00;7.20;;;10.70;99.90;;;;;;6190420;23;20021;-63
2023/06/07 03:10:38;;;;;;;11.15;7.30;;;10.70;99.90;;;;;;6188351;23;20024;-63
2023/06/07 03:13:04;;;;;;;13.35;7.18;;;10.70;99.90;;;;;;6190797;23;20022;-64
2023/06/07 03:15:30;;;;;;;15.73;8.00;;;10.60;99.90;;;;;;6187588;23;20025;-63
2023/06/07 03:17:55;;;;;;;16.25;7.60;;;10.70;99.90;;;;;;6190283;23;20600;-63
2023/06/07 03:20:21;;;;;;;17.35;7.38;;;10.70;99.90;;;;;;6188860;23;20041;-63
2023/06/07 03:22:47;;;;;;;13.27;6.57;;;10.80;99.90;;;;;;6189350;23;20020;-63
2023/06/07 03:25:14;;;;;;;15.00;7.50;;;10.80;99.90;;;;;;6189507;23;20056;-63
2023/06/07 03:27:40;;;;;;;16.75;7.68;;;10.70;99.90;;;;;;6188304;23;20021;-63
2023/06/07 03:30:07;;;;;;;14.30;7.50;;;10.80;99.90;;;;;;6190360;23;20163;-64
2023/06/07 03:32:33;;;;;;;14.18;6.50;;;10.80;99.90;;;;;;6188022;23;20052;-64
2023/06/07 03:34:58;;;;;;;13.52;6.80;;;10.80;99.90;;;;;;6190362;23;20017;-63
2023/06/07 03:37:24;;;;;;;21.70;7.28;;;10.80;99.90;;;;;;6188960;23;20028;-63
2023/06/07 03:39:50;;;;;;;13.70;7.22;;;10.80;99.90;;;;;;6190039;23;20028;-65
2023/06/07 03:42:16;;;;;;;13.02;6.72;;;10.80;99.90;;;;;;6196964;23;20044;-64
2023/06/07 03:44:41;;;;;;;16.50;9.35;;;10.90;99.90;;;;;;6203845;23;20044;-64
2023/06/07 03:47:07;;;;;;;17.25;6.43;;;10.90;99.90;;;;;;6174318;23;20623;-64
2023/06/07 03:49:33;;;;;;;15.05;7.60;;;11.00;99.90;;;;;;6198663;23;20072;-63
2023/06/07 03:51:59;;;;;;;13.75;6.93;;;11.10;99.90;;;;;;6195891;23;20048;-63
2023/06/07 03:54:24;;;;;;;13.30;7.30;;;11.00;99.90;;;;;;6190487;23;20021;-64
2023/06/07 03:56:50;;;;;;;9.95;6.15;;;11.00;99.90;;;;;;6190090;23;20103;-64
2023/06/07 03:59:20;;;;;;;15.43;8.02;;;11.00;99.90;;;;;;6162407;23;20167;-64
2023/06/07 04:01:48;;;;;;;17.55;6.63;;;11.00;99.90;;;;;;6187766;23;20025;-66
2023/06/07 04:04:14;;;;;;;15.18;7.95;;;11.00;99.90;;;;;;6190095;23;20093;-63
2023/06/07 04:06:39;;;;;;;13.00;6.85;;;11.00;99.90;;;;;;6160430;23;20017;-64
2023/06/07 04:09:07;;;;;;;14.65;6.82;;;11.00;99.90;;;;;;6190054;23;20017;-64
2023/06/07 04:11:33;;;;;;;17.67;7.22;;;11.00;99.90;;;;;;6187982;23;20017;-64
2023/06/07 04:13:59;;;;;;;13.60;7.32;;;11.00;99.90;;;;;;6189213;23;20049;-64
2023/06/07 04:16:25;;;;;;;12.20;6.40;;;11.10;99.90;;;;;;6189055;23;20017;-64
2023/06/07 04:18:51;;;;;;;15.50;6.57;;;11.10;99.90;;;;;;6188513;23;20064;-63
2023/06/07 04:21:16;;;;;;;13.85;6.32;;;11.00;99.90;;;;;;6190028;23;20025;-64
2023/06/07 04:23:42;;;;;;;14.23;7.50;;;11.10;99.90;;;;;;6187391;23;20021;-64
2023/06/07 04:26:08;;;;;;;12.98;6.97;;;11.10;99.90;;;;;;6189933;23;20023;-64
2023/06/07 04:28:34;;;;;;;17.63;7.55;;;11.10;99.90;;;;;;6189275;23;20013;-63
2023/06/07 04:31:00;;;;;;;14.02;7.28;;;11.10;99.90;;;;;;6165998;23;20550;-64
2023/06/07 04:33:27;;;;;;;15.48;6.47;;;11.20;99.90;;;;;;6189054;23;20032;-63
2023/06/07 04:35:57;;;;;;;15.27;6.47;;;11.20;99.90;;;;;;6189046;23;20569;-63
2023/06/07 04:38:23;;;;;;;14.68;6.55;;;11.20;99.90;;;;;;6190742;23;20170;-65
2023/06/07 04:40:53;;;;;;;20.90;7.18;;;11.30;99.90;;;;;;6187802;23;20079;-64
2023/06/07 04:43:19;;;;;;;15.93;5.78;;;11.30;99.90;;;;;;6190637;23;20017;-63
2023/06/07 04:45:54;;;;;;;13.13;5.43;;;11.40;99.90;;;;;;6188517;23;20634;-64
2023/06/07 04:48:25;;;;;;;16.13;6.45;;;11.40;99.90;;;;;;6190640;23;20029;-64
2023/06/07 04:50:53;;;;;;;13.60;5.40;;;11.40;99.90;;;;;;6191360;23;20021;-62
2023/06/07 04:53:22;;;;;;;12.80;5.20;;;11.50;99.90;;;;;;6193429;23;20023;-63
2023/06/07 04:55:48;;;;;;;14.45;6.20;;;11.50;99.90;;;;;;6175007;23;20043;-64
2023/06/07 04:58:18;;;;;;;21.70;6.78;;;11.60;99.90;;;;;;6197657;23;20021;-63
2023/06/07 05:00:45;;;;;;;12.32;5.32;;;11.60;99.90;;;;;;6195351;23;20028;-63
2023/06/07 05:03:13;;;;;;;16.23;5.97;;;11.60;99.90;;;;;;6189322;23;20230;-65
2023/06/07 05:05:42;;;;;;;11.75;5.35;;;11.70;99.90;;;;;;6189333;23;20103;-64
2023/06/07 05:08:08;;;;;;;15.18;5.60;;;11.70;99.90;;;;;;6189658;23;20032;-63
2023/06/07 05:10:34;;;;;;;10.45;4.95;;;11.70;99.90;;;;;;6187773;23;20021;-64
2023/06/07 05:13:00;;;;;;;13.45;5.85;;;11.80;99.90;;;;;;6162981;23;20533;-63
2023/06/07 05:15:27;;;;;;;17.92;5.50;;;11.90;99.90;;;;;;6187576;23;20017;-64
2023/06/07 05:17:54;;;;;;;14.13;5.40;;;12.00;99.90;;;;;;6189616;23;20032;-63
2023/06/07 05:20:24;;;;;;;18.63;6.03;;;12.00;99.90;;;;;;6188157;23;20021;-64
2023/06/07 05:22:50;;;;;;;13.52;5.10;;;12.20;99.90;;;;;;6188810;23;20016;-64
2023/06/07 05:25:16;;;;;;;12.60;5.80;;;12.20;99.90;;;;;;6188906;23;20021;-64
2023/06/07 05:27:42;;;;;;;9.60;5.05;;;12.30;99.90;;;;;;6187198;23;20025;-64
2023/06/07 05:30:09;;;;;;;12.10;5.20;;;12.30;99.90;;;;;;6189915;23;20089;-65
2023/06/07 05:32:36;;;;;;;17.67;5.07;;;12.30;99.90;;;;;;6187560;23;20113;-64
2023/06/07 05:35:03;;;;;;;10.82;5.50;;;12.40;99.90;;;;;;6189437;23;20644;-64
2023/06/07 05:37:30;;;;;;;13.85;5.60;;;12.40;99.90;;;;;;6188419;23;20017;-63
2023/06/07 05:39:56;;;;;;;15.48;4.78;;;12.50;99.90;;;;;;6188725;23;20055;-64
2023/06/07 05:42:22;;;;;;;11.85;5.38;;;12.40;99.90;;;;;;6189248;23;20125;-64
2023/06/07 05:44:49;;;;;;;20.45;5.30;;;12.40;99.90;;;;;;6187704;23;20021;-63
2023/06/07 05:47:16;;;;;;;9.82;4.45;;;12.50;99.90;;;;;;6189615;23;20060;-63
2023/06/07 05:49:45;;;;;;;9.70;4.88;;;12.50;99.90;;;;;;6187409;23;20021;-64
2023/06/07 05:52:11;;;;;;;20.50;5.88;;;12.50;99.90;;;;;;6189624;23;20052;-64
2023/06/07 05:54:38;;;;;;;15.93;5.10;;;12.60;99.90;;;;;;6188212;23;20028;-65
2023/06/07 05:57:05;;;;;;;15.13;5.72;;;12.70;99.90;;;;;;6161763;23;20073;-64
2023/06/07 05:59:31;;;;;;;18.70;4.97;;;12.70;99.90;;;;;;6189184;23;20761;-64
2023/06/07 06:01:57;;;;;;;10.15;4.18;;;12.70;99.90;;;;;;6187175;23;20021;-64
2023/06/07 06:04:24;;;;;;;13.25;4.88;;;12.70;99.90;;;;;;6189874;23;20013;-64
2023/06/07 06:06:50;;;;;;;10.93;3.70;;;12.80;99.90;;;;;;6186946;23;20013;-64
2023/06/07 06:09:17;;;;;;;12.13;4.88;;;12.80;99.90;;;;;;6189354;23;20024;-64
2023/06/07 06:11:43;;;;;;;12.75;4.50;;;12.80;99.90;;;;;;6187876;23;20063;-64
2023/06/07 06:14:09;;;;;;;16.20;4.05;;;12.80;99.90;;;;;;6188975;23;20017;-64
2023/06/07 06:16:34;;;;;;;7.95;3.45;;;12.90;99.90;;;;;;6189053;23;20380;-64
2023/06/07 06:19:00;;;;;;;12.45;4.25;;;12.90;99.90;;;;;;6187170;23;20147;-63
2023/06/07 06:21:26;;;;;;;12.70;4.03;;;12.90;99.90;;;;;;6189044;23;20021;-64
2023/06/07 06:23:54;;;;;;;8.23;4.38;;;12.90;99.90;;;;;;6186475;23;20104;-63
2023/06/07 06:26:21;;;;;;;13.77;4.63;;;12.90;99.90;;;;;;6188772;23;20017;-62
2023/06/07 06:28:47;;;;;;;14.32;4.78;;;12.90;99.90;;;;;;6187621;23;20024;-64
2023/06/07 06:31:13;;;;;;;9.88;3.95;;;12.90;99.90;;;;;;6190306;23;20092;-63
2023/06/07 06:33:38;;;;;;;18.52;5.80;;;12.90;99.90;;;;;;6190569;23;20108;-63
2023/06/07 06:36:07;;;;;;;12.90;3.88;;;13.00;99.90;;;;;;6188662;23;20024;-63
2023/06/07 06:38:32;;;;;;;6.80;3.97;;;13.10;99.90;;;;;;6191227;23;20096;-64
2023/06/07 06:40:58;;;;;;;10.80;3.88;;;13.10;99.90;;;;;;6194519;23;20017;-63
2023/06/07 06:43:24;;;;;;;12.95;5.07;;;13.20;99.90;;;;;;6198661;23;20025;-64
2023/06/07 06:45:50;;;;;;;8.98;3.75;;;13.30;99.90;;;;;;6196108;23;20076;-64
2023/06/07 06:48:15;;;;;;;11.50;4.00;;;13.40;99.90;;;;;;6198723;23;20040;-64
2023/06/07 06:50:43;;;;;;;15.38;5.35;;;13.40;99.90;;;;;;6192687;23;20032;-67
2023/06/07 06:53:09;;;;;;;8.52;4.78;;;13.50;99.90;;;;;;6190771;23;20077;-65
2023/06/07 06:55:35;;;;;;;15.18;4.80;;;13.60;99.90;;;;;;6191307;23;20065;-64
2023/06/07 06:58:00;;;;;;;10.43;4.20;;;13.70;99.90;;;;;;6188321;23;20205;-65
2023/06/07 07:00:26;;;;;;;14.35;4.95;;;13.70;99.90;;;;;;6190798;23;20017;-65
2023/06/07 07:02:52;;;;;;;10.27;3.72;;;13.70;99.90;;;;;;6188339;23;20072;-65
2023/06/07 07:05:18;;;;;;;9.93;3.58;;;13.70;99.90;;;;;;6190198;23;20024;-65
2023/06/07 07:07:44;;;;;;;16.77;5.32;;;13.80;99.90;;;;;;6189598;23;20064;-65
2023/06/07 07:10:10;;;;;;;11.05;4.05;;;13.80;99.90;;;;;;6189330;23;20017;-65
2023/06/07 07:12:39;;;;;;;11.98;4.53;;;14.00;99.90;;;;;;6190561;23;20017;-66
2023/06/07 07:15:05;;;;;;;11.68;3.90;;;14.00;99.90;;;;;;6188606;23;20013;-65
2023/06/07 07:17:31;;;;;;;11.93;5.30;;;14.10;99.90;;;;;;6190648;23;20027;-65
2023/06/07 07:19:57;;;;;;;9.65;4.28;;;14.20;99.90;;;;;;6188639;23;20017;-65
2023/06/07 07:22:25;;;;;;;11.48;4.63;;;14.30;99.90;;;;;;6190194;23;20013;-66
2023/06/07 07:24:51;;;;;;;10.38;3.78;;;14.40;99.90;;;;;;6189169;23;20887;-65
2023/06/07 07:27:19;;;;;;;7.63;3.53;;;14.40;99.90;;;;;;6189537;23;20045;-65
2023/06/07 07:29:44;;;;;;;14.00;4.60;;;14.60;99.90;;;;;;6190576;23;20468;-65
2023/06/07 07:32:10;;;;;;;11.40;4.00;;;14.50;99.90;;;;;;6188370;23;20017;-65
2023/06/07 07:34:36;;;;;;;7.90;3.72;;;14.50;99.90;;;;;;6190810;23;20021;-65
2023/06/07 07:37:02;;;;;;;11.45;4.10;;;14.60;99.90;;;;;;6187938;23;20047;-67
2023/06/07 07:39:29;;;;;;;16.40;4.60;;;14.70;99.90;;;;;;6190377;23;20021;-65
2023/06/07 07:41:55;;;;;;;8.88;4.10;;;14.80;99.90;;;;;;6189084;23;20028;-64
2023/06/07 07:44:20;;;;;;;13.20;4.45;;;14.70;99.90;;;;;;6189293;23;20505;-65
2023/06/07 07:46:46;;;;;;;11.57;3.80;;;14.70;99.90;;;;;;6190074;23;20029;-64
2023/06/07 07:49:12;;;;;;;9.98;4.50;;;14.80;99.90;;;;;;6188046;23;20032;-65
2023/06/07 07:51:38;;;;;;;10.43;4.18;;;15.00;99.90;;;;;;6188659;23;20021;-65
2023/06/07 07:54:04;;;;;;;12.90;4.13;;;14.90;99.90;;;;;;6161124;23;20655;-66
2023/06/07 07:56:30;;;;;;;11.80;3.15;;;15.10;99.90;;;;;;6189027;23;20021;-65
2023/06/07 07:58:55;;;;;;;15.63;4.55;;;15.20;99.90;;;;;;6188458;23;20056;-64
2023/06/07 08:01:22;;;;;;;10.93;4.30;;;15.30;99.90;;;;;;6189079;23;20051;-64
2023/06/07 08:03:50;;;;;;;9.35;3.97;;;15.30;99.90;;;;;;6162925;23;20021;-65
2023/06/07 08:06:16;;;;;;;9.02;4.35;;;15.20;99.90;;;;;;6187615;23;20021;-65
2023/06/07 08:08:42;;;;;;;15.65;4.97;;;15.20;99.90;;;;;;6189831;23;20103;-65
2023/06/07 08:11:08;;;;;;;15.30;4.13;;;15.30;99.90;;;;;;6187628;23;20072;-65
2023/06/07 08:13:33;;;;;;;10.77;4.38;;;15.40;99.90;;;;;;6163191;23;20028;-65
2023/06/07 08:15:59;;;;;;;12.02;4.82;;;15.40;99.90;;;;;;6188200;23;20024;-65
2023/06/07 08:18:25;;;;;;;12.30;3.58;;;15.50;99.90;;;;;;6189141;23;20021;-66
2023/06/07 08:20:51;;;;;;;10.52;4.18;;;15.60;99.90;;;;;;6188991;23;20031;-64
2023/06/07 08:23:16;;;;;;;11.57;4.15;;;15.60;99.90;;;;;;6187955;23;20025;-65
2023/06/07 08:25:42;;;;;;;8.15;4.45;;;15.70;99.90;;;;;;6189520;23;20100;-65
2023/06/07 08:28:08;;;;;;;13.15;4.03;;;15.80;99.90;;;;;;6187388;23;20032;-65
2023/06/07 08:30:34;;;;;;;9.80;3.58;;;16.00;99.90;;;;;;6189181;23;20024;-65
2023/06/07 08:33:00;;;;;;;13.05;3.90;;;16.10;99.90;;;;;;6187785;23;20552;-65
2023/06/07 08:35:25;;;;;;;13.13;4.00;;;16.10;99.90;;;;;;6188409;23;20017;-65
2023/06/07 08:37:51;;;;;;;10.55;4.20;;;16.20;99.90;;;;;;6188749;23;20032;-65
2023/06/07 08:40:18;;;;;;;9.52;4.47;;;16.30;99.90;;;;;;6188008;23;20598;-65
2023/06/07 08:42:44;;;;;;;11.65;3.67;;;16.30;99.90;;;;;;6189522;23;20040;-65
2023/06/07 08:45:10;;;;;;;9.57;4.13;;;16.60;99.90;;;;;;6186973;23;20025;-65
2023/06/07 08:47:37;;;;;;;8.48;3.72;;;16.80;99.90;;;;;;6189129;23;20032;-65
2023/06/07 08:50:03;;;;;;;7.38;3.35;;;16.70;99.90;;;;;;6186930;23;20028;-65
2023/06/07 08:52:31;;;;;;;12.93;3.75;;;16.80;99.90;;;;;;6187912;23;20080;-65
2023/06/07 08:55:02;;;;;;;9.13;4.07;;;16.90;99.90;;;;;;6188348;23;20017;-62
2023/06/07 08:57:29;;;;;;;10.73;3.28;;;16.90;99.90;;;;;;6187809;23;20057;-63
2023/06/07 08:59:56;;;;;;;12.20;3.75;;;17.00;99.90;;;;;;6189694;23;20079;-63
2023/06/07 09:02:24;;;;;;;11.20;4.05;;;17.10;99.90;;;;;;6187270;23;20059;-64
2023/06/07 09:04:51;;;;;;;9.50;4.45;;;17.20;99.90;;;;;;6189119;23;20024;-62
2023/06/07 09:07:17;;;;;;;9.07;3.15;;;17.30;99.90;;;;;;6187812;23;20027;-62
2023/06/07 09:09:43;;;;;;;8.00;4.28;;;17.50;99.90;;;;;;6188822;23;20013;-62
2023/06/07 09:12:12;;;;;;;12.63;4.18;;;17.40;99.90;;;;;;6188756;23;20037;-62
2023/06/07 09:14:38;;;;;;;12.70;3.60;;;17.40;99.90;;;;;;6187990;23;20407;-62
2023/06/07 09:17:04;;;;;;;10.25;3.60;;;17.60;99.90;;;;;;6192700;23;20055;-62
2023/06/07 09:19:36;;;;;;;8.88;3.35;;;17.70;99.90;;;;;;6188770;23;20013;-62
2023/06/07 09:22:03;;;;;;;7.43;3.72;;;17.70;99.90;;;;;;6190359;23;20025;-62
2023/06/07 09:24:30;;;;;;;11.25;3.47;;;17.70;99.90;;;;;;6192408;23;20017;-62
2023/06/07 09:26:56;;;;;;;9.63;3.17;;;17.80;99.90;;;;;;6198166;23;20016;-62
2023/06/07 09:29:22;;;;;;;13.43;3.10;;;17.80;99.90;;;;;;6198438;23;20061;-63
2023/06/07 09:31:48;;;;;;;8.98;3.20;;;17.80;99.90;;;;;;6194175;23;20025;-63
2023/06/07 09:34:26;;;;;;;10.65;3.17;;;17.90;99.90;;;;;;6199719;23;20029;-62
2023/06/07 09:36:58;;;;;;;8.57;3.08;;;18.00;99.90;;;;;;6198907;23;20032;-64
2023/06/07 09:39:26;;;;;;;8.60;3.53;;;18.10;99.90;;;;;;6203545;23;20020;-63
2023/06/07 09:41:55;;;;;;;9.25;3.47;;;18.20;99.90;;;;;;6199807;23;20025;-63
2023/06/07 09:44:31;;;;;;;8.77;3.50;;;18.20;99.90;;;;;;6199025;23;20013;-63
2023/06/07 09:46:58;;;;;;;7.45;3.25;;;18.20;99.90;;;;;;6195920;23;20069;-64
2023/06/07 09:49:34;;;;;;;7.28;2.90;;;18.20;99.90;;;;;;6191114;23;20036;-66
2023/06/07 09:52:02;;;;;;;9.88;3.47;;;18.20;99.90;;;;;;6188839;23;20040;-67
2023/06/07 09:54:40;;;;;;;8.15;3.38;;;18.00;99.90;;;;;;6161028;23;20017;-65
2023/06/07 09:57:08;;;;;;;6.13;2.58;;;17.90;99.90;;;;;;6187926;23;20132;-66
2023/06/07 09:59:38;;;;;;;10.95;3.55;;;18.10;99.90;;;;;;6188772;23;20035;-66
2023/06/07 10:02:24;;;;;;;6.68;3.05;;;18.10;99.90;;;;;;6185991;23;20035;-62
2023/06/07 10:04:50;;;;;;;8.07;2.92;;;18.30;99.90;;;;;;6191338;23;20092;-61
2023/06/07 10:07:20;;;;;;;10.70;3.72;;;18.50;99.90;;;;;;6163049;23;20461;-62
2023/06/07 10:09:49;;;;;;;9.40;3.10;;;18.50;99.90;;;;;;6190952;23;20028;-62
2023/06/07 10:12:17;;;;;;;15.40;3.70;;;18.50;99.90;;;;;;6191179;23;20017;-62
2023/06/07 10:14:45;;;;;;;8.77;2.90;;;18.60;99.90;;;;;;6163355;23;20031;-62
2023/06/07 10:17:14;;;;;;;6.60;3.30;;;18.90;99.90;;;;;;6191929;23;20049;-61
2023/06/07 10:19:48;;;;;;;6.28;2.97;;;19.10;99.90;;;;;;6190292;23;20032;-62
2023/06/07 10:22:22;;;;;;;6.72;3.03;;;19.00;99.90;;;;;;6190900;23;20025;-62
2023/06/07 10:25:12;;;;;;;6.70;3.25;;;19.10;99.90;;;;;;6190071;23;20069;-62
2023/06/07 10:27:59;;;;;;;9.38;3.33;;;19.00;99.90;;;;;;6189683;23;20020;-62
2023/06/07 10:30:27;;;;;;;7.32;2.72;;;19.10;99.90;;;;;;6190900;23;20021;-62
2023/06/07 10:32:53;;;;;;;9.27;3.50;;;19.20;99.90;;;;;;6192170;23;20017;-62
2023/06/07 10:35:20;;;;;;;6.68;2.90;;;19.30;99.90;;;;;;6194526;23;20177;-62
2023/06/07 10:37:55;;;;;;;6.60;2.95;;;19.30;99.90;;;;;;6194316;23;20016;-61
2023/06/07 10:40:21;;;;;;;9.02;3.22;;;19.40;99.90;;;;;;6190714;23;20129;-62
2023/06/07 10:42:47;;;;;;;7.90;3.30;;;19.40;99.90;;;;;;6190702;23;20025;-62
2023/06/07 10:45:18;;;;;;;5.38;2.70;;;19.40;99.90;;;;;;6188436;23;20056;-61
2023/06/07 10:47:44;;;;;;;9.57;3.20;;;19.40;99.90;;;;;;6164044;23;20036;-62
2023/06/07 10:50:30;;;;;;;10.68;4.15;;;19.40;99.90;;;;;;6188789;23;20025;-63
2023/06/07 10:52:59;;;;;;;11.45;3.70;;;19.50;99.90;;;;;;6190052;23;20021;-62
2023/06/07 10:55:26;;;;;;;10.48;3.00;;;19.50;99.90;;;;;;6190599;23;20021;-62
2023/06/07 10:57:53;;;;;;;8.98;3.50;;;19.70;99.90;;;;;;6188458;23;20445;-62
2023/06/07 11:00:29;;;;;;;8.18;3.20;;;19.80;99.90;;;;;;6163109;23;20053;-62
2023/06/07 11:03:08;;;;;;;6.28;3.05;;;19.80;99.90;;;;;;6188471;23;20025;-62
2023/06/07 11:05:52;;;;;;;13.77;3.33;;;20.00;99.90;;;;;;6189621;23;20056;-62
2023/06/07 11:08:28;;;;;;;6.80;3.20;;;20.00;99.90;;;;;;6190326;23;20025;-62
2023/06/07 11:11:01;;;;;;;11.80;3.08;;;20.00;99.90;;;;;;6188015;23;20036;-62
2023/06/07 11:13:46;;;;;;;6.63;3.05;;;20.10;99.90;;;;;;6190248;23;20470;-62
2023/06/07 11:16:24;;;;;;;9.73;2.80;;;20.00;99.90;;;;;;6187555;23;20024;-62
2023/06/07 11:19:05;;;;;;;6.22;2.78;;;20.10;99.90;;;;;;6188614;23;20021;-62
2023/06/07 11:21:53;;;;;;;7.72;2.90;;;20.00;99.90;;;;;;6190040;23;20124;-62
2023/06/07 11:24:20;;;;;;;11.98;3.33;;;20.10;99.90;;;;;;6187447;23;20032;-62
2023/06/07 11:26:47;;;;;;;7.68;2.90;;;20.20;99.90;;;;;;6189271;23;20025;-62
2023/06/07 11:29:20;;;;;;;5.97;2.42;;;20.20;99.90;;;;;;6189115;23;20339;-63
2023/06/07 11:31:58;;;;;;;5.97;2.88;;;20.40;99.90;;;;;;6188887;23;20020;-63
2023/06/07 11:34:31;;;;;;;5.45;2.88;;;20.40;99.90;;;;;;6190728;23;20029;-62
2023/06/07 11:37:11;;;;;;;7.53;2.80;;;20.30;99.90;;;;;;6188294;23;20048;-62
2023/06/07 11:39:37;;;;;;;4.70;2.65;;;20.40;99.90;;;;;;6190311;23;20031;-62
2023/06/07 11:42:04;;;;;;;5.55;2.83;;;20.50;99.90;;;;;;6189380;23;20044;-62
2023/06/07 11:44:29;;;;;;;5.10;2.67;;;20.50;99.90;;;;;;6189068;23;20021;-63
2023/06/07 11:46:56;;;;;;;7.82;2.67;;;20.60;99.90;;;;;;6190236;23;20080;-62
2023/06/07 11:49:25;;;;;;;5.95;2.47;;;20.70;99.90;;;;;;6188426;23;20025;-62
2023/06/07 11:51:57;;;;;;;6.38;2.90;;;20.70;99.90;;;;;;6190812;23;20025;-62
2023/06/07 11:54:24;;;;;;;7.63;3.20;;;20.70;99.90;;;;;;6188571;23;20021;-62
2023/06/07 11:56:50;;;;;;;10.18;3.15;;;20.60;99.90;;;;;;6190085;23;20335;-62
2023/06/07 11:59:21;;;;;;;8.68;2.90;;;20.80;99.90;;;;;;6189281;23;20019;-63
2023/06/07 12:01:51;;;;;;;5.93;3.20;;;21.00;99.90;;;;;;6187975;23;20518;-63
2023/06/07 12:04:17;;;;;;;6.78;2.90;;;20.90;99.90;;;;;;6189921;23;20081;-64
2023/06/07 12:06:44;;;;;;;6.43;2.70;;;21.10;99.90;;;;;;6188004;23;20017;-62
2023/06/07 12:09:13;;;;;;;7.82;2.83;;;21.20;99.90;;;;;;6190313;23;20017;-63
2023/06/07 12:11:39;;;;;;;7.43;2.90;;;21.10;99.90;;;;;;6188772;23;20024;-62
2023/06/07 12:14:09;;;;;;;6.97;3.00;;;21.20;99.90;;;;;;6189514;23;20017;-63
2023/06/07 12:16:38;;;;;;;6.03;2.88;;;21.10;99.90;;;;;;6194037;23;20065;-63
2023/06/07 12:19:05;;;;;;;12.75;3.42;;;21.10;99.90;;;;;;6170525;23;20040;-64
2023/06/07 12:21:31;;;;;;;9.07;3.10;;;21.00;99.90;;;;;;6193234;23;20313;-63
2023/06/07 12:24:00;;;;;;;8.98;3.00;;;21.10;99.90;;;;;;6191826;23;20371;-63
2023/06/07 12:26:29;;;;;;;9.52;3.47;;;21.30;99.90;;;;;;6198558;23;20053;-64
2023/06/07 12:28:55;;;;;;;6.20;3.17;;;21.50;99.90;;;;;;6198294;23;20382;-62
2023/06/07 12:31:28;;;;;;;6.18;3.22;;;21.40;99.90;;;;;;6203463;23;20017;-63
2023/06/07 12:34:08;;;;;;;9.20;3.65;;;21.60;99.90;;;;;;6175765;23;20020;-63
2023/06/07 12:36:36;;;;;;;14.00;3.78;;;21.60;99.90;;;;;;6197500;23;20048;-63
2023/06/07 12:39:10;;;;;;;7.20;3.53;;;21.80;99.90;;;;;;6197901;23;20024;-62
2023/06/07 12:41:37;;;;;;;10.25;3.72;;;21.50;99.90;;;;;;6192108;23;20453;-63
2023/06/07 12:44:08;;;;;;;6.72;2.85;;;21.50;99.90;;;;;;6189756;23;20021;-63